CST,Max TemperatureF,Mean TemperatureF,Min TemperatureF,Max Dew PointF,MeanDew PointF,Min DewpointF,Max Humidity, Mean Humidity, Min Humidity, Max Sea Level PressureIn, Mean Sea Level PressureIn, Min Sea Level PressureIn, Max VisibilityMiles, Mean VisibilityMiles, Min VisibilityMiles, Max Wind SpeedMPH, Mean Wind SpeedMPH, Max Gust SpeedMPH,PrecipitationIn, CloudCover, Events, WindDirDegrees
2013-2-1,49,41,33,33,26,19,79,58,37,30.51,30.40,30.33,10,10,10,17,8,21,0.00,0,,49
2013-2-2,71,52,33,48,40,28,89,67,44,30.31,30.24,30.17,10,9,2,21,7,29,0.00,1,,230
2013-2-3,70,53,36,41,34,24,92,55,18,30.30,30.23,30.12,10,9,2,17,5,22,0.00,0,,357
2013-2-4,62,54,45,48,40,32,76,59,42,30.11,30.01,29.93,10,10,8,12,4,15,0.01,3,Rain,161
2013-2-5,65,55,44,54,50,43,100,84,67,30.08,30.01,29.94,10,6,0,6,1,9,0.05,5,Fog-Rain,159
2013-2-6,61,52,42,56,51,41,100,89,78,30.16,30.07,29.99,10,3,0,9,3,12,0.02,7,Fog-Rain,63
2013-2-7,71,63,55,59,55,52,100,79,57,29.99,29.95,29.89,10,5,0,10,4,15,0.00,7,,322
2013-2-8,61,52,43,56,48,37,93,72,51,30.26,30.12,29.96,10,9,7,18,9,23,T,5,Rain,26
2013-2-9,60,49,37,54,41,35,92,75,57,30.27,30.15,30.01,10,9,5,13,6,16,0.00,3,,87
2013-2-10,65,62,59,63,59,55,97,88,78,30.00,29.88,29.81,10,7,0,33,6,41,1.87,8,Fog-Rain-Thunderstorm,174
2013-2-11,60,55,50,56,48,45,93,82,71,30.18,30.13,30.02,10,10,5,13,5,14,0.51,8,Rain,41
2013-2-12,51,49,46,48,45,44,93,90,86,30.12,29.92,29.83,10,6,1,21,8,25,1.14,7,Rain-Thunderstorm,45
2013-2-13,54,47,39,44,40,37,93,74,54,30.10,30.01,29.87,10,10,6,13,6,18,T,6,Rain,299
2013-2-14,63,49,34,41,37,32,100,67,34,30.16,30.11,30.06,10,10,5,9,2,14,0.00,0,,174
2013-2-15,62,50,38,39,35,26,85,63,40,30.28,30.20,30.11,10,10,10,17,7,23,T,3,,341
2013-2-16,52,42,32,26,21,13,64,43,21,30.36,30.30,30.25,10,10,10,22,8,28,0.00,1,,329
2013-2-17,65,49,32,44,32,24,75,55,34,30.30,30.21,30.11,10,10,10,16,8,23,0.00,0,,170
2013-2-18,69,60,50,56,49,39,87,71,55,30.14,29.98,29.85,10,9,2,25,12,36,0.75,7,Rain-Thunderstorm,183
2013-2-19,60,51,41,44,35,26,76,52,28,30.32,30.23,30.04,10,10,10,20,7,25,0.00,0,,14
2013-2-20,55,49,43,33,29,26,65,50,35,30.31,30.20,30.06,10,10,10,18,9,23,T,4,Rain,68
2013-2-21,66,56,45,63,46,28,93,71,49,30.04,29.83,29.67,10,10,5,23,9,29,0.08,7,Rain-Thunderstorm,129
2013-2-22,56,48,39,47,41,37,96,79,61,30.09,30.02,29.93,10,6,0,14,5,17,0.07,5,Fog-Rain-Thunderstorm,6
2013-2-23,59,49,38,41,37,34,92,70,47,30.07,30.01,29.96,10,10,8,14,6,17,0.00,0,,46
2013-2-24,66,51,35,42,38,33,100,70,40,30.06,29.95,29.78,10,10,4,14,7,23,0.00,1,,57
2013-2-25,71,60,48,63,51,34,93,74,55,29.76,29.55,29.32,10,8,1,28,9,37,0.39,7,Rain,122
2013-2-26,56,48,39,35,34,32,76,60,43,29.93,29.73,29.54,10,10,10,29,16,36,T,4,,269
2013-2-27,62,47,32,37,33,28,96,65,34,30.09,30.00,29.93,10,7,0,21,7,28,0.00,0,Fog,299
2013-2-28,58,47,36,32,28,24,76,52,28,30.20,30.13,30.08,10,10,10,18,9,22,0.00,0,,310